createdAt,value
2018-11-23T00:01:49.093Z,36.90
2018-11-23T00:04:21.725Z,43.20
2018-11-23T00:06:54.391Z,46.33
2018-11-23T00:09:27.081Z,41.60
2018-11-23T00:11:59.692Z,41.10
2018-11-23T00:14:32.487Z,43.40
2018-11-23T00:17:05.432Z,53.42
2018-11-23T00:19:38.094Z,41.58
2018-11-23T00:22:10.693Z,43.02
2018-11-23T00:24:43.268Z,45.25
2018-11-23T00:27:15.942Z,43.87
2018-11-23T00:29:48.584Z,46.55
2018-11-23T00:32:21.213Z,43.58
2018-11-23T00:34:53.792Z,52.13
2018-11-23T00:37:26.425Z,43.80
2018-11-23T00:39:59.059Z,38.60
2018-11-23T00:42:31.655Z,39.30
2018-11-23T00:45:06.085Z,44.20
2018-11-23T00:47:38.845Z,47.98
2018-11-23T00:50:13.232Z,40.12
2018-11-23T00:52:46.127Z,43.92
2018-11-23T00:55:19.904Z,43.17
2018-11-23T00:57:52.561Z,41.73
2018-11-23T01:00:33.732Z,43.92
2018-11-23T01:03:06.405Z,41.85
2018-11-23T01:05:39.082Z,44.00
2018-11-23T01:08:11.771Z,48.92
2018-11-23T01:10:44.375Z,42.30
2018-11-23T01:13:17.023Z,50.17
2018-11-23T01:15:49.652Z,44.83
2018-11-23T01:18:22.219Z,51.63
2018-11-23T01:20:54.792Z,46.55
2018-11-23T01:23:27.435Z,43.58
2018-11-23T01:26:00.069Z,38.92
2018-11-23T01:28:32.674Z,45.78
2018-11-23T01:31:05.334Z,45.43
2018-11-23T01:33:38.023Z,49.15
2018-11-23T01:36:10.621Z,43.05
2018-11-23T01:38:43.210Z,45.95
2018-11-23T01:41:15.844Z,44.30
2018-11-23T01:43:48.519Z,42.75
2018-11-23T01:46:21.074Z,43.78
2018-11-23T01:48:53.624Z,46.55
2018-11-23T01:51:26.265Z,47.48
2018-11-23T01:53:58.831Z,44.00
2018-11-23T01:56:31.527Z,38.38
2018-11-23T01:59:04.241Z,41.90
2018-11-23T02:01:36.880Z,45.33
2018-11-23T02:11:00.844Z,48.10
2018-11-23T02:13:33.431Z,59.05
2018-11-23T02:16:06.127Z,54.67
2018-11-23T02:18:38.752Z,46.18
2018-11-23T02:21:11.368Z,49.90
2018-11-23T02:23:43.986Z,59.65
2018-11-23T02:26:16.635Z,62.88
2018-11-23T02:28:49.397Z,57.20
2018-11-23T02:31:27.833Z,59.60
2018-11-23T02:34:00.533Z,50.60
2018-11-23T02:36:33.106Z,57.23
2018-11-23T02:39:06.899Z,65.10
2018-11-23T02:41:39.475Z,58.15
2018-11-23T02:44:12.033Z,60.23
2018-11-23T02:46:44.662Z,58.02
2018-11-23T02:49:17.289Z,54.35
2018-11-23T02:51:49.941Z,63.38
2018-11-23T02:54:22.508Z,58.50
2018-11-23T02:56:55.145Z,58.38
2018-11-23T02:59:27.738Z,56.92
2018-11-23T03:02:00.416Z,54.65
2018-11-23T03:04:32.932Z,66.22
2018-11-23T03:07:05.684Z,62.10
2018-11-23T03:09:38.347Z,60.15
2018-11-23T03:12:10.997Z,57.88
2018-11-23T03:14:43.604Z,62.80
2018-11-23T03:17:16.130Z,63.17
2018-11-23T03:19:48.724Z,69.55
2018-11-23T03:22:21.333Z,62.38
2018-11-23T03:24:53.960Z,72.58
2018-11-23T03:27:26.543Z,72.70
2018-11-23T03:29:59.136Z,68.35
2018-11-23T03:32:31.764Z,57.75
2018-11-23T03:35:05.214Z,67.32
2018-11-23T03:37:37.944Z,63.28
2018-11-23T03:40:10.631Z,64.25
2018-11-23T03:42:43.277Z,56.50
2018-11-23T03:45:16.376Z,72.80
2018-11-23T03:47:49.007Z,70.22
2018-11-23T03:50:21.635Z,73.83
2018-11-23T03:52:54.253Z,67.42
2018-11-23T03:55:26.851Z,68.07
2018-11-23T03:57:59.612Z,63.10
2018-11-23T04:00:32.179Z,55.60
2018-11-23T04:03:04.827Z,73.10
2018-11-23T04:05:37.439Z,69.65
2018-11-23T04:08:10.051Z,69.85
2018-11-23T04:10:42.609Z,69.50
2018-11-23T04:13:15.208Z,81.85
2018-11-23T04:15:47.862Z,71.25
2018-11-23T04:18:20.424Z,68.10
2018-11-23T04:21:01.804Z,74.32
2018-11-23T04:23:34.345Z,89.05
2018-11-23T04:26:06.953Z,69.62
2018-11-23T04:28:39.579Z,74.45
2018-11-23T04:31:12.134Z,63.85
2018-11-23T04:33:44.715Z,63.42
2018-11-23T04:36:17.356Z,72.92
2018-11-23T04:38:50.007Z,79.40
2018-11-23T04:41:22.577Z,69.35
2018-11-23T04:43:55.262Z,73.10
2018-11-23T04:46:27.871Z,74.82
2018-11-23T04:49:00.515Z,71.42
2018-11-23T04:51:33.127Z,76.12
2018-11-23T04:54:05.842Z,88.20
2018-11-23T04:56:38.473Z,89.28
2018-11-23T04:59:11.126Z,89.05
2018-11-23T05:01:43.766Z,80.65
2018-11-23T05:04:16.371Z,84.13
2018-11-23T05:06:49.064Z,96.25
2018-11-23T05:09:21.642Z,87.95
2018-11-23T05:11:54.222Z,89.20
2018-11-23T05:14:26.869Z,82.88
2018-11-23T05:16:59.490Z,81.95
2018-11-23T05:19:32.101Z,85.55
2018-11-23T05:22:05.048Z,73.67
2018-11-23T05:24:37.710Z,89.67
2018-11-23T05:27:10.309Z,84.70
2018-11-23T05:29:42.952Z,93.45
2018-11-23T05:32:15.617Z,72.22
2018-11-23T05:34:48.331Z,92.40
2018-11-23T05:37:21.020Z,104.12
2018-11-23T05:39:53.690Z,90.20
2018-11-23T05:42:26.243Z,96.87
2018-11-23T05:44:58.876Z,120.67
2018-11-23T05:47:31.530Z,92.15
2018-11-23T05:50:05.937Z,105.92
2018-11-23T05:52:38.657Z,98.20
2018-11-23T05:55:11.751Z,92.55
2018-11-23T05:57:44.386Z,82.12
2018-11-23T06:00:21.314Z,106.17
2018-11-23T06:02:54.001Z,109.32
2018-11-23T06:05:26.586Z,103.40
2018-11-23T06:07:59.252Z,87.22
2018-11-23T06:10:31.954Z,125.58
2018-11-23T06:13:04.557Z,110.25
2018-11-23T06:15:40.455Z,90.10
2018-11-23T06:18:09.883Z,111.35
2018-11-23T06:20:42.514Z,124.97
2018-11-23T06:23:15.115Z,119.35
2018-11-23T06:25:51.028Z,108.22
2018-11-23T06:28:23.180Z,126.15
2018-11-23T06:30:55.839Z,143.07
2018-11-23T06:33:32.755Z,135.50
2018-11-23T06:36:05.531Z,104.90
2018-11-23T06:38:38.186Z,118.17
2018-11-23T06:41:11.088Z,119.90
2018-11-23T06:43:43.656Z,124.30
2018-11-23T06:46:16.292Z,120.02
2018-11-23T06:48:48.945Z,104.30
2018-11-23T06:51:21.597Z,113.60
2018-11-23T06:53:54.202Z,125.65
2018-11-23T06:56:26.889Z,98.72
2018-11-23T06:58:59.556Z,110.60
2018-11-23T07:01:32.142Z,115.32
2018-11-23T07:04:04.763Z,121.55
2018-11-23T07:06:37.358Z,105.70
2018-11-23T07:09:09.923Z,121.90
2018-11-23T07:11:42.637Z,102.00
2018-11-23T07:14:15.193Z,112.77
2018-11-23T07:16:47.793Z,96.25
2018-11-23T07:19:20.413Z,103.47
2018-11-23T07:21:53.002Z,109.05
2018-11-23T07:24:25.619Z,131.70
2018-11-23T07:26:58.279Z,134.67
2018-11-23T07:29:30.927Z,149.32
2018-11-23T07:32:03.559Z,137.43
2018-11-23T07:34:36.166Z,131.35
2018-11-23T07:37:08.786Z,122.90
2018-11-23T07:39:52.781Z,114.65
2018-11-23T07:42:27.811Z,106.95
2018-11-23T07:45:00.460Z,129.25
2018-11-23T07:47:33.143Z,99.00
2018-11-23T07:50:07.692Z,93.00
2018-11-23T07:52:40.287Z,95.50
2018-11-23T07:55:13.244Z,100.02
2018-11-23T07:57:45.875Z,83.92
2018-11-23T08:00:19.886Z,94.65
2018-11-23T08:02:52.527Z,73.95
2018-11-23T08:05:25.103Z,79.05
2018-11-23T08:07:57.718Z,84.90
2018-11-23T08:10:29.771Z,104.78
2018-11-23T08:13:02.417Z,91.95
2018-11-23T08:15:35.189Z,97.65
2018-11-23T08:18:07.932Z,88.15
2018-11-23T08:20:40.503Z,65.47
2018-11-23T08:23:13.223Z,65.05
2018-11-23T08:25:45.813Z,71.55
2018-11-23T08:28:18.470Z,64.05
2018-11-23T08:30:51.100Z,66.47
2018-11-23T10:45:11.971Z,153.60
2018-11-23T10:47:45.036Z,166.90
2018-11-23T10:50:22.867Z,164.18
2018-11-23T10:52:55.541Z,201.92
2018-11-23T10:55:29.684Z,163.82
2018-11-23T10:58:02.702Z,122.45
2018-11-23T11:00:40.929Z,116.25
2018-11-23T11:03:33.409Z,141.65
2018-11-23T11:06:12.715Z,155.12
2018-11-23T11:08:45.273Z,154.55
2018-11-23T11:11:17.941Z,131.05
2018-11-23T11:13:50.654Z,124.07
2018-11-23T11:16:23.438Z,141.03
2018-11-23T11:18:56.100Z,101.60
2018-11-23T11:21:28.720Z,105.22
2018-11-23T11:24:01.466Z,112.52
2018-11-23T11:26:34.144Z,117.03
2018-11-23T11:29:06.747Z,95.97
2018-11-23T11:31:39.399Z,104.00
2018-11-23T11:34:12.143Z,96.72
2018-11-23T11:36:44.875Z,102.27
2018-11-23T11:39:18.222Z,84.40
2018-11-23T11:41:50.211Z,86.90
2018-11-23T11:44:22.827Z,84.85
2018-11-23T11:46:55.372Z,89.72
2018-11-23T11:49:27.942Z,75.92
2018-11-23T11:52:00.603Z,87.57
2018-11-23T11:54:33.219Z,90.00
2018-11-23T11:57:05.878Z,110.72
2018-11-23T11:59:38.598Z,106.50
2018-11-23T12:14:04.999Z,92.67
2018-11-23T12:16:37.763Z,87.25
2018-11-23T12:19:10.434Z,104.63
2018-11-23T12:21:43.380Z,103.50
2018-11-23T12:24:16.090Z,103.85
2018-11-23T12:26:48.839Z,92.12
2018-11-23T12:29:21.580Z,101.25
2018-11-23T12:31:54.189Z,104.53
2018-11-23T12:34:26.895Z,94.05
2018-11-23T12:36:59.626Z,95.72
2018-11-23T12:39:32.279Z,73.70
2018-11-23T12:42:05.176Z,86.30
2018-11-23T12:44:37.885Z,75.50
2018-11-23T12:47:10.467Z,84.28
2018-11-23T12:49:43.143Z,77.80
2018-11-23T12:52:15.802Z,97.92
2018-11-23T12:54:48.438Z,78.05
2018-11-23T12:57:21.091Z,82.80
2018-11-23T12:59:54.537Z,97.05
2018-11-23T13:02:27.622Z,78.57
2018-11-23T13:05:00.338Z,102.53
2018-11-23T13:07:33.028Z,74.62
2018-11-23T13:10:06.634Z,84.77
2018-11-23T13:12:39.364Z,89.28
2018-11-23T13:15:12.898Z,90.60
2018-11-23T13:17:45.888Z,97.92
2018-11-23T13:20:18.974Z,111.10
2018-11-23T13:22:51.670Z,121.17
2018-11-23T13:25:27.012Z,124.50
2018-11-23T13:27:59.971Z,136.90
2018-11-23T13:30:34.047Z,144.45
2018-11-23T13:33:06.773Z,137.75
2018-11-23T13:35:39.492Z,126.80
2018-11-23T13:42:00.138Z,139.37
2018-11-23T13:44:32.896Z,93.30
2018-11-23T13:47:05.963Z,112.65
2018-11-23T13:49:38.603Z,101.72
2018-11-23T13:52:11.341Z,107.65
2018-11-23T13:54:43.931Z,99.97
2018-11-23T13:57:16.598Z,74.87
2018-11-23T13:59:49.337Z,81.12
2018-11-23T14:02:22.045Z,88.72
2018-11-23T14:04:54.729Z,116.50
2018-11-23T14:07:27.484Z,103.25
2018-11-23T14:10:00.518Z,122.58
2018-11-23T14:12:33.204Z,116.50
2018-11-23T14:15:08.733Z,104.12
2018-11-23T14:17:42.350Z,112.12
2018-11-23T14:20:15.892Z,129.57
2018-11-23T14:22:48.634Z,120.70
2018-11-23T14:25:23.434Z,105.95
2018-11-23T14:27:56.391Z,106.50
2018-11-23T14:30:31.027Z,120.37
2018-11-23T14:33:04.382Z,97.33
2018-11-23T14:35:37.060Z,113.03
2018-11-23T14:38:09.766Z,100.47
2018-11-23T14:40:42.378Z,95.05
2018-11-23T14:43:15.802Z,103.75
2018-11-23T14:45:48.580Z,110.28
2018-11-23T14:48:21.188Z,105.95
2018-11-23T14:50:54.846Z,101.50
2018-11-23T14:53:27.992Z,123.75
2018-11-23T14:56:00.699Z,109.07
2018-11-23T14:58:33.329Z,134.32
2018-11-23T15:01:05.975Z,131.87
2018-11-23T15:03:38.755Z,153.25
2018-11-23T15:06:11.473Z,226.65
2018-11-23T15:08:44.135Z,290.15
2018-11-23T15:11:17.593Z,249.00
2018-11-23T15:13:50.320Z,215.45
2018-11-23T15:16:23.058Z,194.15
2018-11-23T15:18:55.657Z,185.95
2018-11-23T15:21:28.306Z,198.95
2018-11-23T15:24:01.196Z,212.60
2018-11-23T15:26:33.869Z,178.47
2018-11-23T15:29:08.081Z,207.75
2018-11-23T15:31:40.806Z,210.48
2018-11-23T15:34:13.512Z,203.88
2018-11-23T15:36:46.266Z,256.50
2018-11-23T15:39:19.012Z,177.80
2018-11-23T15:41:51.712Z,182.60
2018-11-23T15:44:24.375Z,212.72
2018-11-23T15:46:57.256Z,226.35
2018-11-23T15:49:30.034Z,180.52
2018-11-23T15:52:02.702Z,193.60
2018-11-23T15:54:35.318Z,185.03
2018-11-23T15:57:08.188Z,198.60
2018-11-23T15:59:40.902Z,223.80
2018-11-23T16:02:13.718Z,214.65
2018-11-23T16:04:46.495Z,178.27
2018-11-23T16:07:20.593Z,179.00
2018-11-23T16:09:53.261Z,181.00
2018-11-23T16:12:25.981Z,151.95
2018-11-23T16:14:58.620Z,161.45
2018-11-23T16:17:31.322Z,167.60
2018-11-23T16:20:04.991Z,142.18
2018-11-23T16:22:37.760Z,179.47
2018-11-23T16:25:11.259Z,133.12
2018-11-23T16:27:45.040Z,123.35
2018-11-23T16:30:19.912Z,127.90
2018-11-23T16:32:53.827Z,138.10
2018-11-23T16:35:27.990Z,129.27
2018-11-23T16:38:02.321Z,152.05
2018-11-23T16:40:36.555Z,165.20
2018-11-23T16:43:10.445Z,147.98
2018-11-23T16:45:43.677Z,175.22
2018-11-23T16:48:17.151Z,140.25
2018-11-23T16:50:49.912Z,139.00
2018-11-23T16:53:22.513Z,156.72
2018-11-23T16:57:24.952Z,142.22
2018-11-23T16:59:57.653Z,150.10
2018-11-23T17:02:31.512Z,150.12
2018-11-23T17:05:04.241Z,140.70
2018-11-23T17:07:36.878Z,151.57
2018-11-23T17:10:11.535Z,157.60
2018-11-23T17:12:44.585Z,157.30
2018-11-23T17:15:19.640Z,164.93
2018-11-23T17:17:52.364Z,145.07
2018-11-23T17:20:29.475Z,164.62
2018-11-23T17:23:03.071Z,144.00
2018-11-23T17:25:35.722Z,119.77
2018-11-23T17:28:09.752Z,158.55
2018-11-23T17:30:42.430Z,138.28
2018-11-23T17:33:15.117Z,131.07
2018-11-23T17:35:47.781Z,150.32
2018-11-23T17:38:20.451Z,145.02
2018-11-23T17:40:53.161Z,166.25
2018-11-23T17:43:56.956Z,164.37
2018-11-23T17:46:29.655Z,149.25
2018-11-23T17:49:02.309Z,138.62
2018-11-23T17:51:34.982Z,150.25
2018-11-23T17:54:07.643Z,146.77
2018-11-23T17:56:40.407Z,140.60
2018-11-23T17:59:13.114Z,125.00
2018-11-23T18:01:45.805Z,109.65
2018-11-23T18:04:18.577Z,123.90
2018-11-23T18:06:51.252Z,128.87
2018-11-23T18:09:23.984Z,124.35
2018-11-23T18:11:56.589Z,105.78
2018-11-23T18:14:29.356Z,118.70
2018-11-23T18:17:02.195Z,116.85
2018-11-23T18:19:34.922Z,136.20
2018-11-23T18:22:07.606Z,137.40
2018-11-23T18:24:40.288Z,110.60
2018-11-23T18:27:12.953Z,124.67
2018-11-23T18:29:45.650Z,128.45
2018-11-23T18:32:18.447Z,131.50
2018-11-23T18:34:51.193Z,111.12
2018-11-23T18:37:23.918Z,130.72
2018-11-23T18:39:56.607Z,116.35
2018-11-23T18:42:29.302Z,123.22
2018-11-23T18:45:02.069Z,125.92
2018-11-23T18:47:34.850Z,147.35
2018-11-23T18:50:09.393Z,132.67
2018-11-23T18:52:42.178Z,120.40
2018-11-23T18:55:18.335Z,114.30
2018-11-23T18:57:47.855Z,116.00
2018-11-23T19:00:20.488Z,123.40
2018-11-23T19:02:53.292Z,125.70
2018-11-23T19:05:27.004Z,144.45
2018-11-23T19:07:59.830Z,134.32
2018-11-23T19:10:32.462Z,134.82
2018-11-23T19:13:06.004Z,143.28
2018-11-23T19:15:38.838Z,142.28
2018-11-23T19:18:11.667Z,131.60
2018-11-23T19:20:44.301Z,126.22
2018-11-23T19:23:17.000Z,126.65
2018-11-23T19:25:49.806Z,115.17
2018-11-23T19:28:22.552Z,124.15
2018-11-23T19:30:55.350Z,119.87
2018-11-23T19:33:28.049Z,135.88
2018-11-23T19:36:00.782Z,123.33
2018-11-23T19:38:33.458Z,118.33
2018-11-23T19:41:06.236Z,121.75
2018-11-23T19:43:38.992Z,139.57
2018-11-23T19:46:11.784Z,124.35
2018-11-23T19:48:44.413Z,128.18
2018-11-23T19:51:17.139Z,129.12
2018-11-23T19:53:49.866Z,127.75
2018-11-23T19:56:22.617Z,124.95
2018-11-23T19:58:55.285Z,138.70
2018-11-23T20:01:28.063Z,129.42
2018-11-23T20:04:00.722Z,121.65
2018-11-23T20:06:33.408Z,135.93
2018-11-23T20:09:08.952Z,125.20
2018-11-23T20:11:41.711Z,118.37
2018-11-23T20:14:14.457Z,120.70
2018-11-23T20:16:47.290Z,108.72
2018-11-23T20:19:19.990Z,121.72
2018-11-23T20:21:52.710Z,141.15
2018-11-23T20:24:25.528Z,143.45
2018-11-23T20:26:58.237Z,162.37
2018-11-23T20:29:30.882Z,157.37
2018-11-23T20:32:03.618Z,170.85
2018-11-23T20:34:36.351Z,143.02
2018-11-23T20:37:09.104Z,180.07
2018-11-23T20:39:41.813Z,169.75
2018-11-23T20:42:14.471Z,163.18
2018-11-23T20:44:47.193Z,160.57
2018-11-23T20:47:19.987Z,158.82
2018-11-23T20:49:52.730Z,146.22
2018-11-23T20:52:25.528Z,169.05
2018-11-23T20:54:58.168Z,156.97
2018-11-23T20:57:30.870Z,146.55
2018-11-23T21:00:07.540Z,149.30
2018-11-23T21:02:40.245Z,191.10
2018-11-23T21:05:14.031Z,168.05
2018-11-23T21:07:46.695Z,149.82
2018-11-23T21:10:21.548Z,190.05
2018-11-23T21:12:54.846Z,199.45
2018-11-23T21:15:28.677Z,203.92
2018-11-23T21:18:02.711Z,171.95
2018-11-23T21:20:35.406Z,182.02
2018-11-23T21:23:08.115Z,185.80
2018-11-23T21:25:40.790Z,202.10
2018-11-23T21:28:13.573Z,178.15
2018-11-23T21:30:46.213Z,190.90
2018-11-23T21:33:19.001Z,184.72
2018-11-23T21:35:52.282Z,166.28
2018-11-23T21:38:25.024Z,187.47
2018-11-23T21:40:57.693Z,199.50
2018-11-23T21:43:30.413Z,247.98
2018-11-23T21:46:03.119Z,436.17
2018-11-23T21:48:35.873Z,665.95
2018-11-23T21:51:08.603Z,740.40
2018-11-23T21:53:41.450Z,741.60
2018-11-23T21:56:14.079Z,725.85
2018-11-23T21:58:46.874Z,678.73
2018-11-23T22:01:19.554Z,693.02
2018-11-23T22:03:52.350Z,837.63
2018-11-23T22:06:25.055Z,927.82
2018-11-23T22:08:57.763Z,496.30
2018-11-23T22:11:30.404Z,814.30
2018-11-23T22:14:03.211Z,917.90
2018-11-23T22:16:35.859Z,894.90
2018-11-23T22:19:08.591Z,850.77
2018-11-23T22:21:41.295Z,764.02
2018-11-23T22:24:13.982Z,614.63
2018-11-23T22:26:46.710Z,688.17
2018-11-23T22:29:19.918Z,886.50
2018-11-23T22:31:52.667Z,770.05
2018-11-23T22:34:25.245Z,730.63
2018-11-23T22:36:57.953Z,762.50
2018-11-23T22:39:30.673Z,711.00
2018-11-23T22:42:03.329Z,776.22
2018-11-23T22:44:35.968Z,868.43
2018-11-23T22:47:08.633Z,688.05
2018-11-23T22:49:41.330Z,788.40
2018-11-23T22:52:13.963Z,799.40
2018-11-23T22:54:46.660Z,815.40
2018-11-23T22:57:19.326Z,806.72
2018-11-23T22:59:52.005Z,818.37
2018-11-23T23:02:24.692Z,922.15
2018-11-23T23:04:57.341Z,779.50
2018-11-23T23:07:30.066Z,688.80
2018-11-23T23:10:03.010Z,851.92
2018-11-23T23:12:35.604Z,855.25
2018-11-23T23:15:09.875Z,771.12
2018-11-23T23:17:42.600Z,727.15
2018-11-23T23:20:17.577Z,708.77
2018-11-23T23:22:50.268Z,910.00
2018-11-23T23:25:22.930Z,917.75
2018-11-23T23:27:55.533Z,842.85
2018-11-23T23:30:28.237Z,741.75
2018-11-23T23:33:00.922Z,787.75
2018-11-23T23:35:33.563Z,771.40
2018-11-23T23:38:06.238Z,765.52
2018-11-23T23:40:38.805Z,681.08
2018-11-23T23:43:11.403Z,704.33
2018-11-23T23:45:43.948Z,659.77
2018-11-23T23:48:16.592Z,655.22
2018-11-23T23:50:50.075Z,723.28
2018-11-23T23:53:22.002Z,639.35
2018-11-23T23:55:54.617Z,595.85
2018-11-23T23:58:27.184Z,718.75
